createdAt,value
2023-04-15T00:00:46.569Z,5.93
2023-04-15T00:03:31.662Z,6.00
2023-04-15T00:06:16.907Z,5.88
2023-04-15T00:09:02.415Z,5.76
2023-04-15T00:11:47.731Z,5.79
2023-04-15T00:14:34.638Z,5.75
2023-04-15T00:17:19.647Z,5.80
2023-04-15T00:20:06.296Z,5.91
2023-04-15T00:22:51.085Z,5.85
2023-04-15T00:25:36.038Z,5.77
2023-04-15T00:28:21.557Z,5.69
2023-04-15T00:31:06.429Z,5.73
2023-04-15T00:33:51.673Z,5.64
2023-04-15T00:36:36.492Z,5.61
2023-04-15T00:39:22.695Z,5.51
2023-04-15T00:42:07.701Z,5.34
2023-04-15T00:44:53.086Z,5.22
2023-04-15T00:47:41.436Z,5.12
2023-04-15T00:50:26.075Z,5.09
2023-04-15T00:53:11.062Z,5.04
2023-04-15T00:55:56.193Z,5.06
2023-04-15T00:58:41.853Z,5.10
2023-04-15T01:01:27.292Z,5.11
2023-04-15T01:04:12.977Z,5.03
2023-04-15T01:06:57.922Z,5.00
2023-04-15T01:09:43.023Z,5.01
2023-04-15T01:12:28.960Z,4.89
2023-04-15T01:15:14.656Z,5.02
2023-04-15T01:17:59.825Z,4.97
2023-04-15T01:20:44.784Z,4.92
2023-04-15T01:23:29.846Z,4.84
2023-04-15T01:26:16.211Z,4.85
2023-04-15T01:29:01.397Z,4.73
2023-04-15T01:31:53.751Z,4.79
2023-04-15T01:34:38.989Z,4.89
2023-04-15T01:37:24.532Z,4.73
2023-04-15T01:40:12.194Z,4.84
2023-04-15T01:42:57.015Z,4.70
2023-04-15T01:45:42.183Z,4.73
2023-04-15T01:48:27.230Z,4.66
2023-04-15T01:51:12.780Z,4.57
2023-04-15T01:53:57.713Z,4.60
2023-04-15T01:56:42.798Z,4.59
2023-04-15T01:59:27.596Z,4.60
2023-04-15T02:02:12.612Z,4.55
2023-04-15T02:04:57.953Z,4.52
2023-04-15T02:07:43.432Z,4.48
2023-04-15T02:10:28.339Z,4.45
2023-04-15T02:13:13.691Z,4.50
2023-04-15T02:15:59.605Z,4.30
2023-04-15T02:18:47.810Z,4.24
2023-04-15T02:21:32.840Z,4.19
2023-04-15T02:24:17.837Z,4.14
2023-04-15T02:27:03.446Z,4.11
2023-04-15T02:29:50.769Z,4.04
2023-04-15T02:32:35.795Z,4.17
2023-04-15T02:35:20.907Z,3.99
2023-04-15T02:38:06.248Z,4.08
2023-04-15T02:40:51.093Z,3.97
2023-04-15T02:43:36.011Z,3.93
2023-04-15T02:46:22.713Z,3.83
2023-04-15T02:49:08.425Z,3.78
2023-04-15T02:51:53.858Z,3.74
2023-04-15T02:54:38.579Z,3.71
2023-04-15T02:57:23.627Z,3.66
2023-04-15T03:00:10.062Z,3.70
2023-04-15T03:03:02.797Z,3.77
2023-04-15T03:05:47.625Z,3.79
2023-04-15T03:08:32.374Z,3.82
2023-04-15T03:11:18.574Z,3.72
2023-04-15T03:14:03.394Z,3.81
2023-04-15T03:16:50.402Z,4.00
2023-04-15T03:19:35.159Z,3.97
2023-04-15T03:22:20.407Z,4.01
2023-04-15T03:25:05.570Z,3.91
2023-04-15T03:27:50.926Z,3.78
2023-04-15T03:30:35.945Z,3.64
2023-04-15T03:33:21.385Z,3.77
2023-04-15T03:36:06.934Z,3.77
2023-04-15T03:38:51.757Z,3.68
2023-04-15T03:41:36.748Z,3.61
2023-04-15T03:44:21.550Z,3.52
2023-04-15T03:47:06.588Z,3.66
2023-04-15T03:49:51.288Z,3.74
2023-04-15T03:52:36.220Z,3.72
2023-04-15T03:55:21.324Z,3.62
2023-04-15T03:58:06.431Z,3.49
2023-04-15T04:00:51.646Z,3.53
2023-04-15T04:03:37.948Z,3.48
2023-04-15T04:06:23.254Z,3.46
2023-04-15T04:09:08.119Z,3.44
2023-04-15T04:11:53.437Z,3.43
2023-04-15T04:14:38.215Z,3.41
2023-04-15T04:17:23.480Z,3.33
2023-04-15T04:20:08.601Z,3.28
2023-04-15T04:22:53.436Z,3.35
2023-04-15T04:25:38.992Z,3.35
2023-04-15T04:28:23.858Z,3.36
2023-04-15T04:31:08.830Z,3.41
2023-04-15T04:33:53.774Z,3.36
2023-04-15T04:36:38.653Z,3.32
2023-04-15T04:39:23.739Z,3.34
2023-04-15T04:42:08.504Z,3.37
2023-04-15T04:44:53.796Z,3.49
2023-04-15T04:47:38.606Z,3.60
2023-04-15T04:50:23.650Z,3.51
2023-04-15T04:53:08.275Z,3.49
2023-04-15T04:55:53.500Z,3.52
2023-04-15T04:58:38.345Z,3.67
2023-04-15T05:01:23.418Z,3.63
2023-04-15T05:04:08.391Z,3.48
2023-04-15T05:06:53.219Z,3.26
2023-04-15T05:09:38.195Z,3.68
2023-04-15T05:12:23.143Z,3.73
2023-04-15T05:15:08.795Z,3.62
2023-04-15T05:17:53.524Z,3.42
2023-04-15T05:20:38.418Z,3.45
2023-04-15T05:23:23.283Z,3.54
2023-04-15T05:26:08.012Z,3.69
2023-04-15T05:28:53.069Z,3.75
2023-04-15T05:31:37.812Z,3.80
2023-04-15T05:34:22.898Z,3.90
2023-04-15T05:37:07.783Z,4.03
2023-04-15T05:39:52.657Z,4.16
2023-04-15T05:42:37.514Z,4.32
2023-04-15T05:45:22.604Z,4.38
2023-04-15T05:48:08.229Z,4.56
2023-04-15T05:50:53.160Z,4.72
2023-04-15T05:53:38.706Z,4.89
2023-04-15T05:56:23.523Z,4.97
2023-04-15T05:59:08.510Z,5.19
2023-04-15T06:01:53.664Z,5.33
2023-04-15T06:04:39.447Z,5.48
2023-04-15T06:07:24.698Z,5.76
2023-04-15T06:10:10.382Z,5.94
2023-04-15T06:12:55.285Z,6.18
2023-04-15T06:15:40.005Z,6.12
2023-04-15T06:18:25.254Z,5.85
2023-04-15T06:21:10.470Z,6.26
2023-04-15T06:23:56.653Z,6.18
2023-04-15T06:26:41.530Z,6.68
2023-04-15T06:29:26.574Z,6.59
2023-04-15T06:32:12.176Z,6.78
2023-04-15T06:34:57.056Z,7.22
2023-04-15T06:37:41.898Z,7.50
2023-04-15T06:40:27.707Z,7.67
2023-04-15T06:43:12.818Z,7.75
2023-04-15T06:45:58.102Z,7.96
2023-04-15T06:48:42.608Z,7.85
2023-04-15T06:51:27.706Z,7.90
2023-04-15T06:54:12.461Z,8.01
2023-04-15T06:56:57.735Z,7.64
2023-04-15T06:59:43.282Z,7.69
2023-04-15T07:02:28.286Z,8.16
2023-04-15T07:05:13.462Z,8.08
2023-04-15T07:07:58.489Z,7.72
2023-04-15T07:10:43.513Z,7.94
2023-04-15T07:13:31.885Z,8.32
2023-04-15T07:16:17.228Z,8.66
2023-04-15T07:19:02.288Z,8.73
2023-04-15T07:21:47.640Z,8.56
2023-04-15T07:24:32.792Z,8.45
2023-04-15T07:27:17.978Z,8.47
2023-04-15T07:30:03.258Z,8.66
2023-04-15T07:32:48.223Z,9.09
2023-04-15T07:35:33.300Z,9.05
2023-04-15T07:38:18.364Z,9.30
2023-04-15T07:41:03.353Z,9.40
2023-04-15T07:43:48.701Z,9.86
2023-04-15T07:46:33.571Z,10.28
2023-04-15T07:49:19.373Z,10.11
2023-04-15T07:52:04.541Z,9.89
2023-04-15T07:54:49.422Z,9.99
2023-04-15T07:57:37.623Z,10.27
2023-04-15T08:00:22.717Z,10.24
2023-04-15T08:03:07.849Z,10.57
2023-04-15T08:05:52.994Z,10.61
2023-04-15T08:08:37.816Z,10.31
2023-04-15T08:11:24.350Z,10.85
2023-04-15T08:14:09.058Z,11.06
2023-04-15T08:16:53.926Z,11.05
2023-04-15T08:19:40.690Z,11.60
2023-04-15T08:22:25.788Z,12.44
2023-04-15T08:25:10.859Z,12.36
2023-04-15T08:27:57.874Z,12.82
2023-04-15T08:30:42.935Z,13.22
2023-04-15T08:33:28.794Z,13.18
2023-04-15T08:36:13.894Z,14.28
2023-04-15T08:39:01.282Z,14.40
2023-04-15T08:41:51.562Z,13.79
2023-04-15T08:44:40.051Z,13.37
2023-04-15T08:47:29.768Z,13.34
2023-04-15T08:50:16.547Z,13.12
2023-04-15T08:53:02.426Z,13.38
2023-04-15T08:55:57.152Z,13.56
2023-04-15T08:58:44.057Z,14.05
2023-04-15T09:01:29.414Z,14.06
2023-04-15T09:04:14.824Z,14.05
2023-04-15T09:06:59.592Z,13.44
2023-04-15T09:09:44.378Z,13.95
2023-04-15T09:12:29.421Z,14.52
2023-04-15T09:15:16.276Z,15.26
2023-04-15T09:18:01.378Z,14.46
2023-04-15T09:20:46.087Z,13.71
2023-04-15T09:23:32.454Z,12.95
2023-04-15T09:26:17.217Z,12.93
2023-04-15T09:29:07.387Z,13.75
2023-04-15T09:31:52.707Z,14.81
2023-04-15T09:34:38.334Z,15.64
2023-04-15T09:37:35.489Z,14.86
2023-04-15T09:40:37.033Z,14.95
2023-04-15T09:43:22.784Z,15.35
2023-04-15T09:46:08.059Z,15.43
2023-04-15T09:49:10.135Z,14.74
2023-04-15T09:52:05.826Z,15.23
2023-04-15T09:54:55.214Z,14.95
2023-04-15T09:57:44.559Z,15.96
2023-04-15T10:00:29.697Z,17.11
2023-04-15T10:03:20.182Z,16.53
2023-04-15T10:06:05.595Z,17.21
2023-04-15T10:08:51.004Z,16.25
2023-04-15T10:11:35.839Z,16.63
2023-04-15T10:14:21.905Z,16.47
2023-04-15T10:17:08.233Z,15.10
2023-04-15T10:19:54.857Z,14.77
2023-04-15T10:22:42.120Z,15.15
2023-04-15T10:25:26.956Z,15.59
2023-04-15T10:28:12.184Z,16.93
2023-04-15T10:30:59.212Z,16.28
2023-04-15T10:33:44.456Z,15.80
2023-04-15T10:36:32.083Z,15.46
2023-04-15T10:39:43.597Z,14.25
2023-04-15T10:42:35.183Z,13.78
2023-04-15T10:45:20.206Z,14.44
2023-04-15T10:48:08.503Z,16.69
2023-04-15T10:50:57.513Z,16.03
2023-04-15T10:53:43.014Z,15.84
2023-04-15T10:56:29.312Z,16.31
2023-04-15T10:59:16.314Z,16.12
2023-04-15T11:02:08.188Z,15.78
2023-04-15T11:04:55.694Z,15.49
2023-04-15T11:07:46.774Z,16.07
2023-04-15T11:10:31.572Z,15.07
2023-04-15T11:13:21.667Z,14.79
2023-04-15T11:16:07.332Z,14.07
2023-04-15T11:18:56.035Z,14.11
2023-04-15T11:21:41.154Z,14.54
2023-04-15T11:24:28.974Z,14.24
2023-04-15T11:27:23.710Z,15.82
2023-04-15T11:30:26.500Z,14.85
2023-04-15T11:33:12.601Z,14.72
2023-04-15T11:35:57.275Z,13.87
2023-04-15T11:38:42.922Z,13.82
2023-04-15T11:41:27.617Z,13.72
2023-04-15T11:44:18.845Z,13.75
2023-04-15T11:47:22.876Z,14.05
2023-04-15T11:50:16.436Z,14.05
2023-04-15T11:53:08.391Z,13.95
2023-04-15T11:55:53.864Z,13.59
2023-04-15T11:58:39.131Z,13.57
2023-04-15T12:01:42.222Z,13.36
2023-04-15T12:04:27.501Z,13.41
2023-04-15T12:07:12.736Z,13.69
2023-04-15T12:09:58.212Z,13.72
2023-04-15T12:12:43.263Z,14.09
2023-04-15T12:15:28.465Z,14.04
2023-04-15T12:18:19.294Z,13.36
2023-04-15T12:21:09.799Z,13.54
2023-04-15T12:23:56.476Z,13.43
2023-04-15T12:26:53.304Z,12.78
2023-04-15T12:29:41.607Z,13.41
2023-04-15T12:32:27.235Z,13.44
2023-04-15T12:35:12.091Z,12.86
2023-04-15T12:37:57.027Z,12.67
2023-04-15T12:40:42.110Z,12.73
2023-04-15T12:43:27.541Z,12.69
2023-04-15T12:46:13.314Z,12.52
2023-04-15T12:48:58.384Z,12.28
2023-04-15T12:51:43.365Z,12.46
2023-04-15T12:54:29.729Z,12.42
2023-04-15T12:57:14.705Z,12.14
2023-04-15T12:59:59.749Z,12.21
2023-04-15T13:02:44.883Z,12.03
2023-04-15T13:05:29.700Z,12.03
2023-04-15T13:08:14.817Z,12.03
2023-04-15T13:10:59.953Z,12.17
2023-04-15T13:13:44.866Z,12.16
2023-04-15T13:16:30.513Z,12.11
2023-04-15T13:19:15.681Z,11.94
2023-04-15T13:22:00.478Z,11.82
2023-04-15T13:24:45.453Z,11.82
2023-04-15T13:27:31.405Z,11.99
2023-04-15T13:30:16.392Z,11.98
2023-04-15T13:33:01.324Z,12.15
2023-04-15T13:35:46.344Z,11.90
2023-04-15T13:38:31.317Z,11.91
2023-04-15T13:41:16.330Z,11.88
2023-04-15T13:44:01.237Z,11.75
2023-04-15T13:46:46.004Z,11.58
2023-04-15T13:49:31.135Z,11.44
2023-04-15T13:52:15.951Z,11.41
2023-04-15T13:55:18.547Z,11.56
2023-04-15T13:58:04.559Z,11.57
2023-04-15T14:00:49.471Z,11.57
2023-04-15T14:03:35.192Z,11.58
2023-04-15T14:06:20.511Z,11.48
2023-04-15T14:09:05.355Z,11.36
2023-04-15T14:11:50.932Z,11.31
2023-04-15T14:14:35.945Z,11.20
2023-04-15T14:17:21.063Z,11.41
2023-04-15T14:20:07.860Z,11.34
2023-04-15T14:22:52.888Z,11.22
2023-04-15T14:25:39.153Z,11.13
2023-04-15T14:28:24.796Z,11.25
2023-04-15T14:31:09.721Z,11.15
2023-04-15T14:33:54.725Z,11.16
2023-04-15T14:36:40.403Z,11.42
2023-04-15T14:39:25.475Z,11.43
2023-04-15T14:42:10.389Z,11.53
2023-04-15T14:44:55.565Z,11.52
2023-04-15T14:47:40.752Z,11.56
2023-04-15T14:50:25.644Z,11.64
2023-04-15T14:53:10.796Z,11.47
2023-04-15T14:55:55.925Z,11.14
2023-04-15T14:58:40.828Z,11.15
2023-04-15T15:01:26.009Z,11.09
2023-04-15T15:04:11.292Z,11.18
2023-04-15T15:06:56.374Z,11.22
2023-04-15T15:09:41.502Z,11.29
2023-04-15T15:12:26.299Z,11.41
2023-04-15T15:15:19.819Z,11.71
2023-04-15T15:18:14.773Z,11.41
2023-04-15T15:20:59.810Z,11.32
2023-04-15T15:23:45.074Z,11.48
2023-04-15T15:26:30.237Z,11.41
2023-04-15T15:29:14.977Z,11.29
2023-04-15T15:32:00.161Z,11.30
2023-04-15T15:34:45.042Z,11.28
2023-04-15T15:37:30.746Z,11.11
2023-04-15T15:40:15.493Z,10.96
2023-04-15T15:43:00.606Z,11.00
2023-04-15T15:45:45.563Z,10.87
2023-04-15T15:48:30.313Z,10.75
2023-04-15T15:51:15.252Z,10.74
2023-04-15T15:54:00.902Z,10.62
2023-04-15T15:56:45.843Z,10.68
2023-04-15T15:59:30.809Z,10.69
2023-04-15T16:02:16.117Z,10.69
2023-04-15T16:05:01.114Z,10.74
2023-04-15T16:07:45.985Z,10.72
2023-04-15T16:10:31.376Z,10.71
2023-04-15T16:13:16.118Z,10.59
2023-04-15T16:16:01.246Z,10.70
2023-04-15T16:18:45.924Z,10.66
2023-04-15T16:21:31.436Z,10.43
2023-04-15T16:24:16.552Z,10.45
2023-04-15T16:27:01.891Z,10.34
2023-04-15T16:29:47.065Z,10.40
2023-04-15T16:32:31.882Z,10.39
2023-04-15T16:35:16.871Z,10.46
2023-04-15T16:38:01.736Z,10.49
2023-04-15T16:40:46.789Z,10.40
2023-04-15T16:43:31.870Z,10.50
2023-04-15T16:46:16.812Z,10.37
2023-04-15T16:49:01.806Z,10.31
2023-04-15T16:51:46.626Z,10.22
2023-04-15T16:54:33.436Z,10.18
2023-04-15T16:57:18.292Z,10.17
2023-04-15T17:00:03.804Z,10.15
2023-04-15T17:02:49.074Z,10.12
2023-04-15T17:05:34.229Z,10.11
2023-04-15T17:08:19.419Z,10.16
2023-04-15T17:11:04.072Z,10.15
2023-04-15T17:13:49.336Z,9.98
2023-04-15T17:16:34.092Z,9.95
2023-04-15T17:19:19.273Z,10.03
2023-04-15T17:22:03.966Z,9.92
2023-04-15T17:24:48.950Z,9.91
2023-04-15T17:27:34.048Z,9.94
2023-04-15T17:30:18.942Z,9.78
2023-04-15T17:33:04.101Z,9.83
2023-04-15T17:36:09.181Z,9.94
2023-04-15T17:38:56.075Z,9.85
2023-04-15T17:41:41.214Z,9.85
2023-04-15T17:44:26.245Z,9.79
2023-04-15T17:47:11.409Z,9.79
2023-04-15T17:49:56.245Z,9.80
2023-04-15T17:52:41.268Z,9.86
2023-04-15T17:55:26.303Z,9.73
2023-04-15T17:58:11.377Z,9.86
2023-04-15T18:00:59.849Z,9.82
2023-04-15T18:03:44.939Z,9.79
2023-04-15T18:06:29.931Z,9.79
2023-04-15T18:09:14.820Z,9.70
2023-04-15T18:12:00.057Z,9.71
2023-04-15T18:14:44.849Z,9.74
2023-04-15T18:17:30.471Z,9.65
2023-04-15T18:20:15.818Z,9.64
2023-04-15T18:23:00.799Z,9.57
2023-04-15T18:25:45.899Z,9.67
2023-04-15T18:28:31.184Z,9.73
2023-04-15T18:31:16.350Z,9.64
2023-04-15T18:34:04.873Z,9.69
2023-04-15T18:36:50.134Z,9.65
2023-04-15T18:39:34.764Z,9.65
2023-04-15T18:42:20.291Z,9.47
2023-04-15T18:45:05.832Z,9.46
2023-04-15T18:47:51.300Z,9.40
2023-04-15T18:50:36.017Z,9.42
2023-04-15T18:53:21.288Z,9.15
2023-04-15T18:56:06.493Z,9.24
2023-04-15T18:59:08.883Z,9.10
2023-04-15T19:01:58.812Z,9.03
2023-04-15T19:04:43.493Z,9.09
2023-04-15T19:07:30.069Z,8.78
2023-04-15T19:10:14.883Z,8.78
2023-04-15T19:12:59.965Z,8.84
2023-04-15T19:15:44.676Z,8.63
2023-04-15T19:18:29.749Z,8.69
2023-04-15T19:21:15.344Z,8.57
2023-04-15T19:24:00.856Z,8.52
2023-04-15T19:26:49.947Z,8.52
2023-04-15T19:29:35.150Z,8.37
2023-04-15T19:32:21.037Z,8.33
2023-04-15T19:35:06.621Z,8.35
2023-04-15T19:37:51.472Z,8.31
2023-04-15T19:40:36.333Z,8.34
2023-04-15T19:43:21.352Z,8.21
2023-04-15T19:46:06.945Z,8.14
2023-04-15T19:48:53.033Z,8.29
2023-04-15T19:51:37.883Z,8.25
2023-04-15T19:54:23.942Z,8.29
2023-04-15T19:57:08.811Z,8.27
2023-04-15T19:59:53.929Z,8.24
2023-04-15T20:02:38.872Z,8.25
2023-04-15T20:05:24.210Z,8.16
2023-04-15T20:08:09.635Z,8.14
2023-04-15T20:10:54.565Z,8.12
2023-04-15T20:13:39.244Z,8.20
2023-04-15T20:16:24.789Z,8.22
2023-04-15T20:19:09.566Z,8.23
2023-04-15T20:21:54.517Z,8.25
2023-04-15T20:24:39.329Z,8.22
2023-04-15T20:27:24.401Z,8.16
2023-04-15T20:30:09.823Z,8.09
2023-04-15T20:32:54.934Z,8.23
2023-04-15T20:35:39.680Z,8.04
2023-04-15T20:38:24.652Z,7.95
2023-04-15T20:41:09.435Z,8.00
2023-04-15T20:43:54.476Z,7.86
2023-04-15T20:46:39.209Z,7.98
2023-04-15T20:49:24.299Z,7.96
2023-04-15T20:52:09.267Z,8.02
2023-04-15T20:54:54.380Z,7.82
2023-04-15T20:57:39.177Z,7.77
2023-04-15T21:00:24.245Z,7.76
2023-04-15T21:03:09.229Z,7.86
2023-04-15T21:05:54.106Z,7.71
2023-04-15T21:08:39.013Z,7.85
2023-04-15T21:11:43.023Z,7.84
2023-04-15T21:14:29.678Z,7.88
2023-04-15T21:17:14.522Z,7.92
2023-04-15T21:19:59.516Z,7.83
2023-04-15T21:22:44.615Z,7.85
2023-04-15T21:25:29.441Z,7.93
2023-04-15T21:28:14.508Z,7.80
2023-04-15T21:30:59.532Z,7.87
2023-04-15T21:33:44.310Z,7.71
2023-04-15T21:36:29.342Z,7.61
2023-04-15T21:39:14.256Z,7.70
2023-04-15T21:41:59.413Z,7.59
2023-04-15T21:44:44.169Z,7.67
2023-04-15T21:47:29.280Z,7.68
2023-04-15T21:50:14.568Z,7.64
2023-04-15T21:52:59.559Z,7.64
2023-04-15T21:55:44.219Z,7.71
2023-04-15T21:58:29.379Z,7.61
2023-04-15T22:01:14.145Z,7.62
2023-04-15T22:03:59.288Z,7.89
2023-04-15T22:06:44.139Z,7.83
2023-04-15T22:09:29.236Z,7.79
2023-04-15T22:12:14.080Z,7.85
2023-04-15T22:14:59.095Z,7.89
2023-04-15T22:17:43.930Z,7.78
2023-04-15T22:20:29.127Z,7.90
2023-04-15T22:23:17.425Z,7.94
2023-04-15T22:26:02.411Z,7.89
2023-04-15T22:28:47.307Z,7.81
2023-04-15T22:31:32.429Z,7.89
2023-04-15T22:34:21.238Z,7.69
2023-04-15T22:37:06.284Z,7.73
2023-04-15T22:39:51.827Z,7.80
2023-04-15T22:42:36.826Z,7.80
2023-04-15T22:45:22.063Z,7.75
2023-04-15T22:48:06.881Z,7.80
2023-04-15T22:50:52.031Z,7.83
2023-04-15T22:53:37.187Z,7.69
2023-04-15T22:56:23.080Z,7.77
2023-04-15T22:59:08.491Z,7.72
2023-04-15T23:01:53.875Z,7.80
2023-04-15T23:04:39.191Z,7.84
2023-04-15T23:07:24.513Z,7.72
2023-04-15T23:10:09.691Z,7.75
2023-04-15T23:12:54.643Z,7.64
2023-04-15T23:15:39.525Z,7.78
2023-04-15T23:18:24.674Z,7.75
2023-04-15T23:21:09.393Z,7.73
2023-04-15T23:23:54.581Z,7.69
2023-04-15T23:26:39.505Z,7.71
2023-04-15T23:29:24.564Z,7.71
2023-04-15T23:32:09.601Z,7.77
2023-04-15T23:34:54.665Z,7.85
2023-04-15T23:37:39.546Z,7.79
2023-04-15T23:40:24.644Z,7.75
2023-04-15T23:43:09.301Z,7.81
2023-04-15T23:45:54.373Z,7.79
2023-04-15T23:48:40.496Z,7.73
2023-04-15T23:51:25.299Z,7.66
2023-04-15T23:54:10.430Z,7.68
2023-04-15T23:56:55.489Z,7.62
2023-04-15T23:59:40.404Z,7.85
